COOK1: Arkansas River Nr Coolidge, KS

                                SHEF ID:       COOK1     ARKANSAS R NR COOLIDGE, KS
STATION TYPE:
Regulating: Stage = 8.00, Flow = 2028

PRECIP STAGE STAGE(2) RIV-FLOW WTR-TEMP CONDUCT BAT-LOAD
in ft ft cfs F umho/cm volt
Ccp-Rev Ccp-Rev Ccp-Rev Ccp-Rev Ccp-Rev Ccp-Rev Ccp-Rev
(America/Chicago)
07/25 00:00 0.00 4.56 4.75 381 78.78 3326 12.95
07/25 01:00 0.00 4.56 4.75 381 78.13 3326 12.89
07/25 02:00 0.00 4.54 4.72 376 77.43 3341 12.89
07/25 03:00 0.00 4.52 4.70 370 76.73 3325 12.89
07/25 04:00 0.00 4.50 4.70 365 76.01 3323 12.83
07/25 05:00 0.00 4.50 4.67 365 75.22 3343 12.83
07/25 06:00 0.00 4.52 4.71 370 74.35 3368 12.83
07/25 07:00 0.00 4.53 4.73 373 73.56 3373 12.77
07/25 08:00 0.00 4.53 4.72 373 73.02 3343 12.77
07/25 09:00 0.00 4.54 4.75 376 72.81 3341 12.95
07/25 10:00 0.00 4.58 4.77 386 73.11 3332 13.36
07/25 11:00 0.00 4.56 4.75 381 73.87 3326 13.65
07/25 12:00 0.00 4.53 4.75 373 74.98 3332 13.71
07/25 13:00 0.00 4.54 4.75 376 76.23 3337 13.77
07/25 14:00 0.00 4.54 4.72 376 77.50 3348 13.71
07/25 15:00 0.00 4.53 4.71 373 78.75 3352 13.71
07/25 16:00 0.00 4.53 4.70 373 79.86 3348 13.53
07/25 17:00 0.00 4.56 4.71 381 80.74 3350 13.42
07/25 18:00 0.00 4.52 4.69 370 81.19 3352 13.30
07/25 19:00 0.00 4.50 4.68 365 81.27 3344 12.60
07/25 20:00 0.00 4.51 4.67 368 80.89 3357 13.12
07/25 21:00 0.00 4.51 4.67 368 80.42 3353 13.07
07/25 22:00 0.00 4.54 4.69 376 79.86 3337 13.00
07/25 23:00 ---- ---- ---- ---- ---- ---- ----
Data processed at Fri 26Jul2024 04:30 GMT

Parsing this webpage?

Checkout our new Data API! CWMSDataAPI (CDA)

Timeseries IDs (TSIDs)

TSIDs used from left to right in the data table
COOL.Precip-Inc.Total.1Hour.1Hour.Ccp-Rev
COOL.Stage.Inst.1Hour.0.Ccp-Rev
COOL.Stage-Alt.Inst.1Hour.0.Ccp-Rev
COOL.Flow.Inst.1Hour.0.Ccp-Rev
COOL.Temp-Water.Inst.1Hour.0.Ccp-Rev
COOL.Cond.Inst.1Hour.0.Ccp-Rev
COOL.Volt-Battery Load.Inst.1Hour.0.Ccp-Rev

                            

All information presented herein is the property of the government of the United States of America and may be revised or deleted at any time without prior notice. Dissemination of this information without the expressed written consent of the Public Affairs Office, Tulsa District U.S. Army Corps of Engineers is strictly prohibited. These data are gathered electronically and, as presented, have NOT undergone any form of quality control. These data are NOT guaranteed to be valid or correct.